Darstellungsparameter: Aktuell verwendete Einstellungen:
Skalierung der Graphiken ... ?
xyx+y,   Skalierungsfaktor:      Skalierung: Modus: x, Faktor: 1
Darstellungszeitraum ... ?
Vom - - bis: - -   Zeitraum: 26.06.2022 - 26.06.2022
Min/Max/Avg-Anzeige ... ?
Zeige MMA aktuell
Zeige MMA Monat
Zeige MMA alles
Zeige --A aktuell
Zeige --A Monat
Zeige --A alles
Keine MMA-Anzeige
MMA:
Keine MMA-Graphiken
MMA-Basis: 26.06.2022 - 26.06.2022
Quicknavigation für Darstellung... ?
Tage:      1T, 2T, 3T, 5T -1T -2T -3T -5T +1T +2T +3T +5T
Wochen: 1W, 2W, 3W -1W -2W -3W +1W +2W +3W
Monate: 1M, 3M, 6M -1M -3M -6M +1M +3M +6M
Jahre:    1J, 3J, 5J, 10J -1J -3J -5J -10J +1J +3J +5J +10J
Nutze für die Darstellung ... ?
Originaldaten oder Mittelwerte auf ...
Stundenbasis Tagesbasis Wochenbasis
Monatsbasis Jahresbasis      Datenbasis: Original-Daten
Darstellen als:
Statistik (Auto) Statistik J:M      Darstellung:
Zur Graphik,    zurück zur Übersicht aller Sensoren.
 
Tabellarische Datenbersicht: ?
 
Sensor: Nr:Datum:Temp:Feuchte:Taupunkt:
Aussen-T/F 1 26-06-2022 00:00:00 17.7 C 88 % 15.69 C
2 26-06-2022 00:05:00 17.7 C 88 % 15.69 C
3 26-06-2022 00:10:00 17.6 C 89 % 15.77 C
4 26-06-2022 00:15:00 17.6 C 89 % 15.77 C
5 26-06-2022 00:20:00 17.6 C 89 % 15.77 C
6 26-06-2022 00:25:00 17.6 C 89 % 15.77 C
7 26-06-2022 00:30:00 17.5 C 89 % 15.67 C
8 26-06-2022 00:35:00 17.5 C 89 % 15.67 C
9 26-06-2022 00:40:00 17.7 C 89 % 15.86 C
10 26-06-2022 00:45:00 18.3 C 85 % 15.74 C
11 26-06-2022 00:50:00 19 C 82 % 15.86 C
12 26-06-2022 00:55:00 19.4 C 80 % 15.86 C
13 26-06-2022 01:00:00 19.8 C 79 % 16.05 C
14 26-06-2022 01:05:00 19.9 C 80 % 16.35 C
15 26-06-2022 01:10:00 19.8 C 82 % 16.64 C
16 26-06-2022 01:15:00 19.4 C 83 % 16.44 C
17 26-06-2022 01:20:00 19.1 C 85 % 16.52 C
18 26-06-2022 01:25:00 18.8 C 86 % 16.41 C
19 26-06-2022 01:30:00 18.6 C 87 % 16.39 C
20 26-06-2022 01:35:00 18.3 C 88 % 16.28 C
21 26-06-2022 01:40:00 18.2 C 89 % 16.36 C
22 26-06-2022 01:45:00 18.1 C 89 % 16.26 C
23 26-06-2022 01:50:00 17.9 C 89 % 16.06 C
24 26-06-2022 01:55:00 17.8 C 90 % 16.14 C
25 26-06-2022 02:00:00 17.7 C 90 % 16.04 C
Sensor: Nr:Datum:Temp:Feuchte:Taupunkt:
Aussen-T/F 26 26-06-2022 02:05:00 17.7 C 90 % 16.04 C
27 26-06-2022 02:10:00 17.5 C 90 % 15.84 C
28 26-06-2022 02:15:00 17.4 C 91 % 15.92 C
29 26-06-2022 02:20:00 17.3 C 91 % 15.82 C
30 26-06-2022 02:25:00 17.2 C 91 % 15.72 C
31 26-06-2022 02:30:00 17.1 C 91 % 15.62 C
32 26-06-2022 02:35:00 17 C 92 % 15.69 C
33 26-06-2022 02:40:00 16.9 C 92 % 15.59 C
34 26-06-2022 02:45:00 16.9 C 92 % 15.59 C
35 26-06-2022 02:50:00 16.9 C 93 % 15.76 C
36 26-06-2022 02:55:00 16.9 C 93 % 15.76 C
37 26-06-2022 03:00:00 16.8 C 93 % 15.66 C
38 26-06-2022 03:05:00 16.8 C 93 % 15.66 C
39 26-06-2022 03:10:00 16.8 C 93 % 15.66 C
40 26-06-2022 03:15:00 16.8 C 93 % 15.66 C
41 26-06-2022 03:20:00 16.7 C 93 % 15.56 C
42 26-06-2022 03:25:00 16.7 C 93 % 15.56 C
43 26-06-2022 03:30:00 16.6 C 93 % 15.46 C
44 26-06-2022 03:35:00 16.6 C 94 % 15.63 C
45 26-06-2022 03:40:00 16.6 C 93 % 15.46 C
46 26-06-2022 03:45:00 16.6 C 94 % 15.63 C
47 26-06-2022 03:50:00 16.6 C 94 % 15.63 C
48 26-06-2022 03:55:00 16.6 C 94 % 15.63 C
49 26-06-2022 04:00:00 16.6 C 94 % 15.63 C
50 26-06-2022 04:05:00 16.5 C 94 % 15.53 C
Sensor: Nr:Datum:Temp:Feuchte:Taupunkt:
Aussen-T/F 51 26-06-2022 04:10:00 16.5 C 94 % 15.53 C
52 26-06-2022 04:15:00 16.5 C 94 % 15.53 C
53 26-06-2022 04:20:00 16.5 C 94 % 15.53 C
54 26-06-2022 04:25:00 16.5 C 94 % 15.53 C
55 26-06-2022 04:30:00 16.5 C 94 % 15.53 C
56 26-06-2022 04:35:00 16.5 C 94 % 15.53 C
57 26-06-2022 04:40:00 16.5 C 94 % 15.53 C
58 26-06-2022 04:45:00 16.6 C 94 % 15.63 C
59 26-06-2022 04:50:00 16.6 C 94 % 15.63 C
60 26-06-2022 04:55:00 16.6 C 94 % 15.63 C
61 26-06-2022 05:00:00 16.6 C 94 % 15.63 C
62 26-06-2022 05:05:00 16.5 C 94 % 15.53 C
63 26-06-2022 05:10:00 16.5 C 94 % 15.53 C
64 26-06-2022 05:15:00 16.4 C 94 % 15.43 C
65 26-06-2022 05:20:00 16.4 C 94 % 15.43 C
66 26-06-2022 05:25:00 16.4 C 94 % 15.43 C
67 26-06-2022 05:30:00 16.4 C 94 % 15.43 C
68 26-06-2022 05:35:00 16.4 C 94 % 15.43 C
69 26-06-2022 05:40:00 16.4 C 94 % 15.43 C
70 26-06-2022 05:45:00 16.4 C 94 % 15.43 C
71 26-06-2022 05:50:00 16.4 C 94 % 15.43 C
72 26-06-2022 05:55:00 16.6 C 94 % 15.63 C
73 26-06-2022 06:00:00 16.6 C 94 % 15.63 C
74 26-06-2022 06:05:00 16.6 C 93 % 15.46 C
75 26-06-2022 06:10:00 16.6 C 93 % 15.46 C
Sensor: Nr:Datum:Temp:Feuchte:Taupunkt:
Aussen-T/F 76 26-06-2022 06:15:00 16.6 C 93 % 15.46 C
77 26-06-2022 06:20:00 16.6 C 93 % 15.46 C
78 26-06-2022 06:25:00 16.6 C 93 % 15.46 C
79 26-06-2022 06:30:00 16.6 C 93 % 15.46 C
80 26-06-2022 06:35:00 16.6 C 93 % 15.46 C
81 26-06-2022 06:40:00 16.6 C 93 % 15.46 C
82 26-06-2022 06:45:00 16.6 C 93 % 15.46 C
83 26-06-2022 06:50:00 16.7 C 93 % 15.56 C
84 26-06-2022 06:55:00 16.7 C 93 % 15.56 C
85 26-06-2022 07:00:00 16.7 C 93 % 15.56 C
86 26-06-2022 07:05:00 16.7 C 92 % 15.39 C
87 26-06-2022 07:10:00 16.8 C 93 % 15.66 C
88 26-06-2022 07:15:00 16.9 C 93 % 15.76 C
89 26-06-2022 07:20:00 16.9 C 93 % 15.76 C
90 26-06-2022 07:25:00 17 C 92 % 15.69 C
91 26-06-2022 07:30:00 17.1 C 92 % 15.79 C
92 26-06-2022 07:35:00 17.1 C 92 % 15.79 C
93 26-06-2022 07:40:00 17.1 C 92 % 15.79 C
94 26-06-2022 07:45:00 17.1 C 92 % 15.79 C
95 26-06-2022 07:50:00 17.2 C 92 % 15.89 C
96 26-06-2022 07:55:00 17.2 C 91 % 15.72 C
97 26-06-2022 08:00:00 17.3 C 91 % 15.82 C
98 26-06-2022 08:05:00 17.4 C 90 % 15.74 C
99 26-06-2022 08:10:00 17.6 C 90 % 15.94 C
100 26-06-2022 08:15:00 17.7 C 89 % 15.86 C
Sensor: Nr:Datum:Temp:Feuchte:Taupunkt:
Aussen-T/F 101 26-06-2022 08:20:00 17.8 C 88 % 15.79 C
102 26-06-2022 08:25:00 17.9 C 88 % 15.88 C
103 26-06-2022 08:30:00 17.9 C 87 % 15.71 C
104 26-06-2022 08:35:00 18.1 C 88 % 16.08 C
105 26-06-2022 08:40:00 18.1 C 88 % 16.08 C
106 26-06-2022 08:45:00 18.1 C 88 % 16.08 C
107 26-06-2022 08:50:00 18.1 C 87 % 15.9 C
108 26-06-2022 08:55:00 18.1 C 87 % 15.9 C
109 26-06-2022 09:00:00 18.1 C 88 % 16.08 C
110 26-06-2022 09:05:00 18.2 C 87 % 16 C
111 26-06-2022 09:10:00 18.3 C 87 % 16.1 C
112 26-06-2022 09:15:00 18.4 C 87 % 16.2 C
113 26-06-2022 09:20:00 18.4 C 87 % 16.2 C
114 26-06-2022 09:25:00 18.6 C 87 % 16.39 C
115 26-06-2022 09:30:00 18.6 C 87 % 16.39 C
116 26-06-2022 09:35:00 18.7 C 86 % 16.31 C
117 26-06-2022 09:40:00 18.7 C 87 % 16.49 C
118 26-06-2022 09:45:00 18.8 C 86 % 16.41 C
119 26-06-2022 09:50:00 18.8 C 86 % 16.41 C
120 26-06-2022 09:55:00 18.9 C 86 % 16.51 C
121 26-06-2022 10:00:00 19.1 C 85 % 16.52 C
122 26-06-2022 10:05:00 19.2 C 84 % 16.43 C
123 26-06-2022 10:10:00 19.3 C 85 % 16.72 C
124 26-06-2022 10:15:00 19.6 C 84 % 16.82 C
125 26-06-2022 10:20:00 19.7 C 83 % 16.73 C
Sensor: Nr:Datum:Temp:Feuchte:Taupunkt:
Aussen-T/F 126 26-06-2022 10:25:00 19.9 C 82 % 16.74 C
127 26-06-2022 10:30:00 20.1 C 80 % 16.54 C
128 26-06-2022 10:35:00 20.3 C 80 % 16.74 C
129 26-06-2022 10:40:00 20.3 C 79 % 16.54 C
130 26-06-2022 10:45:00 20.4 C 77 % 16.23 C
131 26-06-2022 10:50:00 20.4 C 78 % 16.44 C
132 26-06-2022 10:55:00 20.4 C 78 % 16.44 C
133 26-06-2022 11:00:00 20.5 C 78 % 16.53 C
134 26-06-2022 11:05:00 20.6 C 78 % 16.63 C
135 26-06-2022 11:10:00 20.8 C 77 % 16.62 C
136 26-06-2022 11:15:00 21 C 77 % 16.81 C
137 26-06-2022 11:20:00 21.3 C 76 % 16.9 C
138 26-06-2022 11:25:00 21.6 C 75 % 16.98 C
139 26-06-2022 11:30:00 21.8 C 74 % 16.96 C
140 26-06-2022 11:35:00 22.2 C 75 % 17.56 C
141 26-06-2022 11:40:00 22.4 C 73 % 17.32 C
142 26-06-2022 11:45:00 22.6 C 71 % 17.07 C
143 26-06-2022 11:50:00 22.8 C 69 % 16.82 C
144 26-06-2022 11:55:00 23.2 C 66 % 16.5 C
145 26-06-2022 12:00:00 23.5 C 67 % 17.02 C
146 26-06-2022 12:05:00 23.6 C 68 % 17.35 C
147 26-06-2022 12:10:00 23.9 C 67 % 17.4 C
148 26-06-2022 12:15:00 24.1 C 68 % 17.82 C
149 26-06-2022 12:20:00 24.3 C 64 % 17.05 C
150 26-06-2022 12:25:00 24.6 C 65 % 17.58 C
Sensor: Nr:Datum:Temp:Feuchte:Taupunkt:
Aussen-T/F 151 26-06-2022 12:30:00 24.3 C 65 % 17.3 C
152 26-06-2022 12:35:00 23.9 C 67 % 17.4 C
153 26-06-2022 12:40:00 23.7 C 68 % 17.44 C
154 26-06-2022 12:45:00 23.4 C 69 % 17.39 C
155 26-06-2022 12:50:00 23.3 C 68 % 17.06 C
156 26-06-2022 12:55:00 23.2 C 69 % 17.2 C
157 26-06-2022 13:00:00 23.2 C 70 % 17.42 C
158 26-06-2022 13:05:00 23.1 C 71 % 17.55 C
159 26-06-2022 13:10:00 22.8 C 71 % 17.27 C
160 26-06-2022 13:15:00 22.8 C 69 % 16.82 C
161 26-06-2022 13:20:00 22.6 C 70 % 16.85 C
162 26-06-2022 13:25:00 22.6 C 70 % 16.85 C
163 26-06-2022 13:30:00 22.6 C 73 % 17.51 C
164 26-06-2022 13:35:00 22.5 C 71 % 16.98 C
165 26-06-2022 13:40:00 22.3 C 73 % 17.23 C
166 26-06-2022 13:45:00 22.2 C 72 % 16.91 C
167 26-06-2022 13:50:00 22 C 73 % 16.94 C
168 26-06-2022 13:55:00 21.8 C 75 % 17.17 C
169 26-06-2022 14:00:00 21.7 C 77 % 17.49 C
170 26-06-2022 14:05:00 21.6 C 78 % 17.6 C
171 26-06-2022 14:10:00 21.6 C 80 % 18 C
172 26-06-2022 14:15:00 21.6 C 79 % 17.8 C
173 26-06-2022 14:20:00 21.6 C 82 % 18.39 C
174 26-06-2022 14:25:00 21.6 C 84 % 18.78 C
175 26-06-2022 14:30:00 21.5 C 84 % 18.68 C
Sensor: Nr:Datum:Temp:Feuchte:Taupunkt:
Aussen-T/F 176 26-06-2022 14:35:00 21.3 C 84 % 18.49 C
177 26-06-2022 14:40:00 21.2 C 84 % 18.39 C
178 26-06-2022 14:45:00 21.1 C 85 % 18.48 C
179 26-06-2022 14:50:00 21.1 C 86 % 18.67 C
180 26-06-2022 14:55:00 21.1 C 86 % 18.67 C
181 26-06-2022 15:00:00 21.1 C 86 % 18.67 C
182 26-06-2022 15:05:00 20.9 C 85 % 18.28 C
183 26-06-2022 15:10:00 20.8 C 84 % 18 C
184 26-06-2022 15:15:00 20.8 C 82 % 17.61 C
185 26-06-2022 15:20:00 20.8 C 80 % 17.22 C
186 26-06-2022 15:25:00 20.8 C 81 % 17.42 C
187 26-06-2022 15:30:00 20.9 C 80 % 17.32 C
188 26-06-2022 15:35:00 21 C 79 % 17.22 C
189 26-06-2022 15:40:00 21.1 C 77 % 16.91 C
190 26-06-2022 15:45:00 21.1 C 77 % 16.91 C
191 26-06-2022 15:50:00 21 C 77 % 16.81 C
192 26-06-2022 15:55:00 20.9 C 78 % 16.92 C
193 26-06-2022 16:00:00 21 C 81 % 17.61 C
194 26-06-2022 16:05:00 21 C 81 % 17.61 C
195 26-06-2022 16:10:00 20.9 C 79 % 17.12 C
196 26-06-2022 16:15:00 20.9 C 78 % 16.92 C
197 26-06-2022 16:20:00 20.9 C 77 % 16.72 C
198 26-06-2022 16:25:00 20.9 C 77 % 16.72 C
199 26-06-2022 16:30:00 20.9 C 77 % 16.72 C
200 26-06-2022 16:35:00 20.9 C 77 % 16.72 C
Sensor: Nr:Datum:Temp:Feuchte:Taupunkt:
Aussen-T/F 201 26-06-2022 16:40:00 20.9 C 81 % 17.52 C
202 26-06-2022 16:45:00 20.9 C 82 % 17.71 C
203 26-06-2022 16:50:00 20.8 C 82 % 17.61 C
204 26-06-2022 16:55:00 20.7 C 83 % 17.71 C
205 26-06-2022 17:00:00 20.7 C 84 % 17.9 C
206 26-06-2022 17:05:00 20.5 C 83 % 17.51 C
207 26-06-2022 17:10:00 20.4 C 83 % 17.42 C
208 26-06-2022 17:15:00 20.4 C 84 % 17.61 C
209 26-06-2022 17:20:00 20.3 C 83 % 17.32 C
210 26-06-2022 17:25:00 20.2 C 81 % 16.84 C
211 26-06-2022 17:30:00 20.1 C 80 % 16.54 C
212 26-06-2022 17:35:00 20.1 C 79 % 16.34 C
213 26-06-2022 17:40:00 20.1 C 80 % 16.54 C
214 26-06-2022 17:45:00 20.1 C 79 % 16.34 C
215 26-06-2022 17:50:00 20.1 C 80 % 16.54 C
216 26-06-2022 17:55:00 20.1 C 80 % 16.54 C
217 26-06-2022 18:00:00 20.1 C 81 % 16.74 C
218 26-06-2022 18:05:00 20.1 C 82 % 16.93 C
219 26-06-2022 18:10:00 20.2 C 82 % 17.03 C
220 26-06-2022 18:15:00 20.1 C 81 % 16.74 C
221 26-06-2022 18:20:00 20.1 C 81 % 16.74 C
222 26-06-2022 18:25:00 20.1 C 81 % 16.74 C
223 26-06-2022 18:30:00 20 C 81 % 16.64 C
224 26-06-2022 18:35:00 20 C 80 % 16.44 C
225 26-06-2022 18:40:00 20 C 79 % 16.25 C
Sensor: Nr:Datum:Temp:Feuchte:Taupunkt:
Aussen-T/F 226 26-06-2022 18:45:00 20.1 C 78 % 16.14 C
227 26-06-2022 18:50:00 20.3 C 78 % 16.34 C
228 26-06-2022 18:55:00 20.4 C 76 % 16.03 C
229 26-06-2022 19:00:00 20.5 C 75 % 15.92 C
230 26-06-2022 19:05:00 20.4 C 75 % 15.82 C
231 26-06-2022 19:10:00 20.4 C 76 % 16.03 C
232 26-06-2022 19:15:00 20.4 C 76 % 16.03 C
233 26-06-2022 19:20:00 20.3 C 76 % 15.93 C
234 26-06-2022 19:25:00 20.2 C 77 % 16.04 C
235 26-06-2022 19:30:00 20 C 77 % 15.85 C
236 26-06-2022 19:35:00 19.9 C 78 % 15.95 C
237 26-06-2022 19:40:00 19.9 C 79 % 16.15 C
238 26-06-2022 19:45:00 19.8 C 80 % 16.25 C
239 26-06-2022 19:50:00 19.7 C 79 % 15.96 C
240 26-06-2022 19:55:00 19.6 C 80 % 16.06 C
241 26-06-2022 20:00:00 19.6 C 81 % 16.25 C
242 26-06-2022 20:05:00 19.6 C 82 % 16.44 C
243 26-06-2022 20:10:00 19.6 C 82 % 16.44 C
244 26-06-2022 20:15:00 19.5 C 81 % 16.15 C
245 26-06-2022 20:20:00 19.3 C 81 % 15.96 C
246 26-06-2022 20:25:00 19.3 C 82 % 16.15 C
247 26-06-2022 20:30:00 19.3 C 84 % 16.53 C
248 26-06-2022 20:35:00 19.3 C 85 % 16.72 C
249 26-06-2022 20:40:00 19.3 C 85 % 16.72 C
250 26-06-2022 20:45:00 19.1 C 86 % 16.7 C
Sensor: Nr:Datum:Temp:Feuchte:Taupunkt:
Aussen-T/F 251 26-06-2022 20:50:00 19 C 86 % 16.6 C
252 26-06-2022 20:55:00 18.8 C 86 % 16.41 C
253 26-06-2022 21:00:00 18.8 C 87 % 16.59 C
254 26-06-2022 21:05:00 18.6 C 87 % 16.39 C
255 26-06-2022 21:10:00 18.6 C 87 % 16.39 C
256 26-06-2022 21:15:00 18.5 C 88 % 16.48 C
257 26-06-2022 21:20:00 18.4 C 88 % 16.38 C
258 26-06-2022 21:25:00 18.3 C 87 % 16.1 C
259 26-06-2022 21:30:00 18.3 C 87 % 16.1 C
260 26-06-2022 21:35:00 18.3 C 87 % 16.1 C
261 26-06-2022 21:40:00 18.3 C 88 % 16.28 C
262 26-06-2022 21:45:00 18.3 C 88 % 16.28 C
263 26-06-2022 21:50:00 18.2 C 88 % 16.18 C
264 26-06-2022 21:55:00 18.2 C 89 % 16.36 C
265 26-06-2022 22:00:00 18.1 C 89 % 16.26 C
266 26-06-2022 22:05:00 18.1 C 89 % 16.26 C
267 26-06-2022 22:10:00 17.9 C 89 % 16.06 C
268 26-06-2022 22:15:00 17.7 C 90 % 16.04 C
269 26-06-2022 22:20:00 17.7 C 90 % 16.04 C
270 26-06-2022 22:25:00 17.6 C 91 % 16.11 C
271 26-06-2022 22:30:00 17.5 C 91 % 16.01 C
272 26-06-2022 22:35:00 17.4 C 91 % 15.92 C
273 26-06-2022 22:40:00 17.3 C 91 % 15.82 C
274 26-06-2022 22:45:00 17.2 C 92 % 15.89 C
275 26-06-2022 22:50:00 17.2 C 92 % 15.89 C
Sensor: Nr:Datum:Temp:Feuchte:Taupunkt:
Aussen-T/F 276 26-06-2022 22:55:00 17.1 C 92 % 15.79 C
277 26-06-2022 23:00:00 17.1 C 92 % 15.79 C
278 26-06-2022 23:05:00 17 C 92 % 15.69 C
279 26-06-2022 23:10:00 16.9 C 93 % 15.76 C
280 26-06-2022 23:15:00 16.9 C 93 % 15.76 C
281 26-06-2022 23:20:00 16.8 C 93 % 15.66 C
282 26-06-2022 23:25:00 16.8 C 93 % 15.66 C
283 26-06-2022 23:30:00 16.8 C 93 % 15.66 C
284 26-06-2022 23:35:00 16.8 C 93 % 15.66 C
285 26-06-2022 23:40:00 16.7 C 94 % 15.73 C
286 26-06-2022 23:45:00 16.7 C 94 % 15.73 C
287 26-06-2022 23:50:00 16.7 C 94 % 15.73 C
288 26-06-2022 23:55:00 16.6 C 94 % 15.63 C

Legende:
   Min
   Max


Maximal/Minimal-Werte vom 26.06.2022 - 26.06.2022

Sensor Min Max Avg
Temp
(Aussen-T/F)
16.4 °C
26-06-2022  05:15:00
24.6 °C
26-06-2022  12:25:00
19.06 °C
Feuchte
(Aussen-T/F)
64 %
26-06-2022  12:20:00
94 %
26-06-2022  03:35:00
84.82 %
Taupunkt
(Aussen-T/F)
15.39 C
26-06-2022  07:05:00
18.78 C
26-06-2022  14:25:00
16.31 C

Die Daten stammen von einer Davis Vantage Pro 2 Wetter-Station und werden unter Linux mit der Software wview2wettercgi und aufbereitet. Alle Angaben erfolgen ohne Gewähr für ihre Vollständigkeit oder Richtigkeit.
Kontakt: Rainer Krienke krienke@uni-koblenz.de . Meine Webseiten an der Uni Koblenz oder privat.
Version: $Revision: 0.78 $